Helderberg, NY

6:52 AM EST on November 20, 2017 (GMT -0500)
Remley Lane - 1760' | | Change Station

Elev 1760 ft 42.58 °N, 74.07 °W | Updated 2 minutes ago

Overcast
Overcast
22.0 °F
Feels Like 12 °F
N
9.0
Wind Variable Wind from WNW
Gusts 12.0 mph

Today
High -- | Low -- °F
--% Chance of Precip.
Yesterday
High -- | Low -- °F
Precip. -- in
Pressure 29.91 in
Visibility 10.0 miles
Clouds Scattered Clouds 3400 ft
Mostly Cloudy 5500 ft
Overcast 7500 ft
Windchill 12 °F
Dew Point 20 °F
Humidity 93%
Rainfall 0.00 in
Snow Depth Not available.
6:54 AM 4:29 PM
Waxing Crescent, 4% visible
METAR KALB 201051Z 31006KT 10SM SCT034 BKN055 OVC075 M01/M07 A2990 RMK AO2 SLP127 SHSN DSNT S-SW T10061072
Pressure 29.91 in
Visibility 10.0 miles
Clouds Scattered Clouds 3400 ft
Mostly Cloudy 5500 ft
Overcast 7500 ft
Windchill 12 °F
Dew Point 20 °F
Humidity 93%
Rainfall 0.00 in
Snow Depth Not available.
6:54 AM 4:29 PM
Waxing Crescent, 4% visible
METAR KALB 201051Z 31006KT 10SM SCT034 BKN055 OVC075 M01/M07 A2990 RMK AO2 SLP127 SHSN DSNT S-SW T10061072

Get Severe Weather Alerts

Thanks for signing up!

Be on the lookout for a verification email in your inbox.

You'll start receiving the daily forecast at 6 AM.

×

10-Day Weather Forecast

Almanac

Astronomy

Nov. 20, 2017 Rise Set
Actual Time
Civil Twilight
Nautical Twilight
Astronomical Twilight
Moon
Length of Visible Light
Length of Day
Tomorrow will be .
, % of the Moon is Illuminated

Today's Extremes

State Highs State Lows

Community

WunderPhotos

Category 6

Welcome to Category 6. This is the collective home for Weather Underground's featured writeups by Dr. Jeff Masters (right), Bob Henson (left), Chris Burt, and other regular contributors.

Nearby

Air Quality

  Air Quality AQ Index Pollutant
Not available.

Snow Depth

Station Depth Elevation

Earthquake Activity

City Distance Mag. Time & Date
Minimum magnitude displayed is 2.5.

Coastal Water Temperatures

Place Temperature

Stations

Nearby Weather Stations

Station Location Temp. Windchill Dew Point Humidity Wind Precip. Elev Updated Type
                   

Watches & Warnings

There are currently no watches in effect.